createdAt,value
2023-04-27T00:00:36.494Z,649.7143
2023-04-27T00:01:44.558Z,651.9286
2023-04-27T00:02:52.801Z,653.6429
2023-04-27T00:04:00.853Z,660.7143
2023-04-27T00:05:09.095Z,663.3571
2023-04-27T00:06:16.978Z,652.1429
2023-04-27T00:07:24.910Z,654.0714
2023-04-27T00:08:32.844Z,657.3571
2023-04-27T00:09:40.891Z,659.0000
2023-04-27T00:10:48.964Z,653.3571
2023-04-27T00:11:57.180Z,657.0714
2023-04-27T00:13:05.179Z,659.5000
2023-04-27T00:14:13.277Z,667.6429
2023-04-27T00:15:21.341Z,668.7857
2023-04-27T00:16:29.434Z,672.2143
2023-04-27T00:17:37.506Z,675.7857
2023-04-27T00:18:45.499Z,677.4286
2023-04-27T00:19:53.561Z,677.8571
2023-04-27T00:21:01.665Z,683.0714
2023-04-27T00:22:09.735Z,684.3571
2023-04-27T00:23:17.634Z,685.2857
2023-04-27T00:24:25.693Z,681.7857
2023-04-27T00:25:33.739Z,686.5000
2023-04-27T00:26:41.999Z,687.6429
2023-04-27T00:27:50.051Z,681.7143
2023-04-27T00:28:58.098Z,678.7857
2023-04-27T00:30:06.158Z,675.5714
2023-04-27T00:31:14.158Z,680.0000
2023-04-27T00:32:22.283Z,672.3571
2023-04-27T00:33:30.352Z,675.0714
2023-04-27T00:34:38.342Z,681.5000
2023-04-27T00:35:46.423Z,681.8571
2023-04-27T00:36:54.477Z,687.2857
2023-04-27T00:38:02.409Z,688.1429
2023-04-27T00:39:10.523Z,688.4286
2023-04-27T00:40:18.554Z,683.2857
2023-04-27T00:41:27.062Z,687.7143
2023-04-27T00:42:34.805Z,690.2143
2023-04-27T00:43:43.078Z,688.9286
2023-04-27T00:44:50.966Z,681.0714
2023-04-27T00:45:58.996Z,677.4286
2023-04-27T00:47:07.260Z,671.6429
2023-04-27T00:48:15.103Z,680.0714
2023-04-27T00:49:23.211Z,677.2857
2023-04-27T00:50:31.301Z,676.3571
2023-04-27T00:51:39.295Z,670.7143
2023-04-27T00:52:47.265Z,668.2143
2023-04-27T00:53:55.326Z,674.3571
2023-04-27T00:55:03.391Z,684.0000
2023-04-27T00:56:11.856Z,680.8571
2023-04-27T00:57:19.606Z,668.5714
2023-04-27T00:58:27.726Z,659.2857
2023-04-27T00:59:35.767Z,657.5714
2023-04-27T01:00:43.824Z,654.7143
2023-04-27T01:01:51.918Z,654.5000
2023-04-27T01:03:00.056Z,655.2857
2023-04-27T01:04:08.267Z,658.2143
2023-04-27T01:05:16.068Z,663.6429
2023-04-27T01:06:24.112Z,668.7143
2023-04-27T01:07:32.109Z,674.0714
2023-04-27T01:08:40.154Z,678.5000
2023-04-27T01:09:48.217Z,675.1429
2023-04-27T01:10:56.346Z,676.1429
2023-04-27T01:12:04.621Z,671.6429
2023-04-27T01:13:12.658Z,670.6429
2023-04-27T01:14:20.572Z,672.0000
2023-04-27T01:15:28.695Z,670.2857
2023-04-27T01:16:36.802Z,663.9286
2023-04-27T01:17:44.792Z,664.0000
2023-04-27T01:18:53.028Z,670.2857
2023-04-27T01:20:00.905Z,665.2143
2023-04-27T01:21:08.966Z,667.2857
2023-04-27T01:22:16.901Z,664.2857
2023-04-27T01:23:25.002Z,666.0000
2023-04-27T01:24:33.072Z,664.5000
2023-04-27T01:25:41.232Z,665.0714
2023-04-27T01:26:49.361Z,670.7143
2023-04-27T01:27:57.493Z,668.3571
2023-04-27T01:29:05.422Z,664.5714
2023-04-27T01:30:13.492Z,663.1429
2023-04-27T01:31:21.593Z,662.0714
2023-04-27T01:32:29.631Z,667.1429
2023-04-27T01:33:37.670Z,668.5000
2023-04-27T01:34:45.748Z,666.7857
2023-04-27T01:35:53.954Z,675.3571
2023-04-27T01:37:01.743Z,667.8571
2023-04-27T01:38:09.817Z,667.9286
2023-04-27T01:39:17.878Z,670.0000
2023-04-27T01:40:26.125Z,675.8571
2023-04-27T01:41:34.175Z,672.5000
2023-04-27T01:42:42.451Z,681.5000
2023-04-27T01:43:50.370Z,679.2857
2023-04-27T01:44:58.321Z,684.7857
2023-04-27T01:46:06.399Z,690.2143
2023-04-27T01:47:14.473Z,689.9286
2023-04-27T01:48:22.465Z,690.4286
2023-04-27T01:49:30.604Z,687.1429
2023-04-27T01:50:38.661Z,688.7143
2023-04-27T01:51:46.548Z,682.2857
2023-04-27T01:52:54.661Z,683.0000
2023-04-27T01:54:02.662Z,681.7143
2023-04-27T01:55:11.030Z,678.5000
2023-04-27T01:56:18.934Z,677.4286
2023-04-27T01:57:27.076Z,670.2143
2023-04-27T01:58:35.133Z,671.6429
2023-04-27T01:59:43.235Z,676.5000
2023-04-27T02:00:51.204Z,674.0000
2023-04-27T02:01:59.289Z,678.2857
2023-04-27T02:03:07.483Z,677.3571
2023-04-27T02:04:15.719Z,671.4286
2023-04-27T02:05:23.322Z,676.3571
2023-04-27T02:06:31.407Z,666.3571
2023-04-27T02:07:39.462Z,661.2143
2023-04-27T02:08:47.773Z,662.2143
2023-04-27T02:09:55.797Z,666.5714
2023-04-27T02:11:03.762Z,674.0000
2023-04-27T02:12:11.946Z,671.0714
2023-04-27T02:13:19.888Z,666.5000
2023-04-27T02:14:27.971Z,661.2857
2023-04-27T02:15:36.152Z,661.8571
2023-04-27T02:16:44.113Z,660.5714
2023-04-27T02:17:52.192Z,664.0000
2023-04-27T02:19:00.215Z,669.6429
2023-04-27T02:20:08.153Z,670.1429
2023-04-27T02:21:16.245Z,664.5000
2023-04-27T02:22:24.271Z,659.4286
2023-04-27T02:23:32.449Z,667.8571
2023-04-27T02:24:40.640Z,672.5000
2023-04-27T02:25:48.580Z,672.8571
2023-04-27T02:26:56.849Z,677.3571
2023-04-27T02:28:04.692Z,675.5000
2023-04-27T02:29:13.060Z,672.5000
2023-04-27T02:30:20.889Z,674.2143
2023-04-27T02:31:29.056Z,678.6429
2023-04-27T02:32:36.997Z,685.0714
2023-04-27T02:33:44.997Z,686.7143
2023-04-27T02:34:52.959Z,685.0714
2023-04-27T02:36:01.008Z,685.0000
2023-04-27T02:37:09.033Z,688.7857
2023-04-27T02:38:17.299Z,689.5000
2023-04-27T02:39:25.309Z,690.5000
2023-04-27T02:40:33.504Z,685.6429
2023-04-27T02:41:41.457Z,683.6429
2023-04-27T02:42:49.522Z,673.0714
2023-04-27T02:43:57.606Z,672.0000
2023-04-27T02:45:05.675Z,668.2143
2023-04-27T02:46:13.740Z,670.4286
2023-04-27T02:47:21.762Z,675.7143
2023-04-27T02:48:29.926Z,669.3571
2023-04-27T02:49:38.176Z,665.1429
2023-04-27T02:50:45.793Z,667.5714
2023-04-27T02:51:53.863Z,665.7857
2023-04-27T02:53:02.082Z,655.5714
2023-04-27T02:54:10.143Z,651.1429
2023-04-27T02:55:18.257Z,651.6429
2023-04-27T02:56:26.425Z,648.1429
2023-04-27T02:57:34.305Z,639.2143
2023-04-27T02:58:42.393Z,646.9286
2023-04-27T02:59:50.459Z,647.7143
2023-04-27T03:00:58.561Z,638.0714
2023-04-27T03:02:06.587Z,632.5714
2023-04-27T03:03:14.905Z,627.7143
2023-04-27T03:04:22.624Z,625.5714
2023-04-27T03:05:30.630Z,624.7857
2023-04-27T03:06:38.707Z,628.5000
2023-04-27T03:07:46.934Z,627.9286
2023-04-27T03:08:54.955Z,625.1429
2023-04-27T03:10:02.969Z,630.0714
2023-04-27T03:11:11.113Z,632.1429
2023-04-27T03:12:19.300Z,635.0000
2023-04-27T03:13:27.198Z,640.1429
2023-04-27T03:14:35.252Z,640.7857
2023-04-27T03:15:43.549Z,629.0000
2023-04-27T03:16:51.511Z,630.7857
2023-04-27T03:17:59.521Z,630.0000
2023-04-27T03:19:07.385Z,629.9286
2023-04-27T03:20:15.440Z,625.1429
2023-04-27T03:21:23.476Z,629.0000
2023-04-27T03:22:31.748Z,632.2143
2023-04-27T03:23:39.775Z,634.6429
2023-04-27T03:24:47.841Z,632.2857
2023-04-27T03:25:55.916Z,633.7143
2023-04-27T03:27:03.904Z,638.5000
2023-04-27T03:28:12.126Z,638.9286
2023-04-27T03:29:20.095Z,644.6429
2023-04-27T03:30:28.134Z,640.2143
2023-04-27T03:31:36.236Z,635.2857
2023-04-27T03:32:47.039Z,634.4286
2023-04-27T03:33:57.063Z,632.4667
2023-04-27T03:35:05.134Z,635.7857
2023-04-27T03:36:13.165Z,643.5714
2023-04-27T03:37:21.345Z,648.0000
2023-04-27T03:38:29.421Z,650.6429
2023-04-27T03:39:37.484Z,653.2143
2023-04-27T03:40:45.582Z,660.2857
2023-04-27T03:41:53.668Z,659.7857
2023-04-27T03:43:01.685Z,662.5000
2023-04-27T03:44:09.852Z,666.0000
2023-04-27T03:45:17.782Z,668.2143
2023-04-27T03:46:25.979Z,659.6429
2023-04-27T03:47:33.977Z,652.2143
2023-04-27T03:48:41.829Z,638.7143
2023-04-27T03:49:49.914Z,639.5000
2023-04-27T03:50:58.056Z,643.9286
2023-04-27T03:52:06.208Z,645.2143
2023-04-27T03:53:14.225Z,643.3571
2023-04-27T03:54:22.245Z,637.7857
2023-04-27T03:55:30.353Z,632.0000
2023-04-27T03:56:38.481Z,631.9286
2023-04-27T03:57:46.586Z,626.2857
2023-04-27T03:58:54.591Z,629.5714
2023-04-27T04:00:02.687Z,630.5714
2023-04-27T04:01:11.116Z,630.5714
2023-04-27T04:02:18.709Z,625.8571
2023-04-27T04:03:26.958Z,620.2857
2023-04-27T04:04:34.953Z,615.9286
2023-04-27T04:05:42.911Z,622.7857
2023-04-27T04:06:51.025Z,625.7857
2023-04-27T04:07:59.039Z,626.5000
2023-04-27T04:09:07.285Z,623.9286
2023-04-27T04:10:15.161Z,628.8571
2023-04-27T04:11:23.264Z,632.0714
2023-04-27T04:12:31.314Z,631.3571
2023-04-27T04:13:39.422Z,632.9286
2023-04-27T04:14:47.535Z,628.7143
2023-04-27T04:15:55.658Z,612.7143
2023-04-27T04:17:03.449Z,617.9286
2023-04-27T04:18:11.555Z,624.6429
2023-04-27T04:19:20.760Z,626.2143
2023-04-27T04:20:32.677Z,633.2667
2023-04-27T04:21:40.683Z,639.2143
2023-04-27T04:22:48.777Z,633.9286
2023-04-27T04:23:56.845Z,634.3571
2023-04-27T04:25:04.962Z,632.7857
2023-04-27T04:26:12.974Z,627.2143
2023-04-27T04:27:20.988Z,621.2857
2023-04-27T04:28:29.015Z,605.9286
2023-04-27T04:29:37.082Z,593.0714
2023-04-27T04:30:45.019Z,587.6429
2023-04-27T04:31:53.176Z,575.5714
2023-04-27T04:33:01.177Z,562.2857
2023-04-27T04:34:09.342Z,562.2857
2023-04-27T04:35:17.392Z,561.1429
2023-04-27T04:36:25.428Z,559.0714
2023-04-27T04:37:33.537Z,563.0000
2023-04-27T04:38:41.583Z,577.0714
2023-04-27T04:39:49.655Z,587.2143
2023-04-27T04:40:57.833Z,593.9286
2023-04-27T04:42:05.810Z,604.2857
2023-04-27T04:43:13.801Z,613.4286
2023-04-27T04:44:21.865Z,611.6429
2023-04-27T04:45:29.812Z,620.0000
2023-04-27T04:46:37.947Z,626.2143
2023-04-27T04:47:45.938Z,626.4286
2023-04-27T04:48:54.847Z,629.2857
2023-04-27T04:50:02.418Z,626.2857
2023-04-27T04:51:10.216Z,619.1429
2023-04-27T04:52:18.438Z,633.7857
2023-04-27T04:53:26.280Z,641.6429
2023-04-27T04:54:34.414Z,650.2143
2023-04-27T04:55:42.475Z,664.2857
2023-04-27T04:56:50.632Z,667.5714
2023-04-27T04:57:58.622Z,671.7857
2023-04-27T04:59:06.571Z,669.7857
2023-04-27T05:00:14.603Z,676.9286
2023-04-27T05:01:22.673Z,678.2857
2023-04-27T05:02:30.756Z,671.9286
2023-04-27T05:03:38.960Z,682.3571
2023-04-27T05:04:47.143Z,684.6429
2023-04-27T05:05:55.113Z,688.2143
2023-04-27T05:07:03.090Z,688.1429
2023-04-27T05:08:11.062Z,685.7143
2023-04-27T05:09:19.178Z,691.3571
2023-04-27T05:10:27.194Z,688.7857
2023-04-27T05:11:35.353Z,691.3571
2023-04-27T05:12:43.356Z,685.1429
2023-04-27T05:13:51.477Z,688.2143
2023-04-27T05:14:59.338Z,686.5000
2023-04-27T05:16:07.468Z,685.2143
2023-04-27T05:17:15.493Z,679.3571
2023-04-27T05:18:23.633Z,677.1429
2023-04-27T05:19:31.776Z,674.7857
2023-04-27T05:20:39.735Z,676.0714
2023-04-27T05:21:47.987Z,675.2857
2023-04-27T05:22:55.889Z,668.4286
2023-04-27T05:24:03.927Z,674.8571
2023-04-27T05:25:12.097Z,679.6429
2023-04-27T05:26:20.045Z,684.9286
2023-04-27T05:27:28.096Z,695.7143
2023-04-27T05:28:36.177Z,704.7857
2023-04-27T05:29:44.103Z,709.6429
2023-04-27T05:30:52.201Z,718.7143
2023-04-27T05:32:00.357Z,719.7143
2023-04-27T05:33:08.449Z,724.5000
2023-04-27T05:34:16.597Z,728.4286
2023-04-27T05:35:24.569Z,741.2857
2023-04-27T05:36:32.609Z,746.0714
2023-04-27T05:37:40.572Z,749.1429
2023-04-27T05:38:48.693Z,745.7143
2023-04-27T05:39:56.813Z,744.5000
2023-04-27T05:41:04.826Z,754.5000
2023-04-27T05:42:12.867Z,760.4286
2023-04-27T05:43:20.963Z,767.4286
2023-04-27T05:44:28.911Z,778.3571
2023-04-27T05:45:37.005Z,786.0000
2023-04-27T05:46:45.013Z,788.6429
2023-04-27T05:47:53.232Z,793.8571
2023-04-27T05:49:01.361Z,801.5714
2023-04-27T05:50:09.353Z,801.8571
2023-04-27T05:51:17.394Z,806.3571
2023-04-27T05:52:25.375Z,808.3571
2023-04-27T05:53:33.496Z,817.0714
2023-04-27T05:54:41.487Z,825.4286
2023-04-27T05:55:49.682Z,833.2857
2023-04-27T05:56:57.704Z,844.8571
2023-04-27T05:58:08.963Z,853.2143
2023-04-27T05:59:18.470Z,857.8666
2023-04-27T06:00:26.554Z,857.8571
2023-04-27T06:01:34.588Z,860.0000
2023-04-27T06:02:42.956Z,863.5714
2023-04-27T06:03:50.924Z,863.0714
2023-04-27T06:04:59.086Z,855.7857
2023-04-27T06:06:06.904Z,854.7143
2023-04-27T06:07:16.153Z,853.1429
2023-04-27T06:08:23.112Z,850.0714
2023-04-27T06:09:31.069Z,843.6429
2023-04-27T06:10:39.108Z,840.2857
2023-04-27T06:11:47.233Z,846.2143
2023-04-27T06:12:55.347Z,853.5000
2023-04-27T06:14:03.255Z,856.5000
2023-04-27T06:15:11.287Z,863.5000
2023-04-27T06:16:19.449Z,867.2857
2023-04-27T06:17:27.508Z,879.2857
2023-04-27T06:18:35.559Z,877.2143
2023-04-27T06:19:43.646Z,881.0000
2023-04-27T06:20:51.790Z,881.1429
2023-04-27T06:21:59.709Z,878.0000
2023-04-27T06:23:07.789Z,876.7857
2023-04-27T06:24:15.848Z,880.5000
2023-04-27T06:25:27.074Z,881.7857
2023-04-27T06:26:36.862Z,880.9333
2023-04-27T06:27:44.788Z,889.4286
2023-04-27T06:28:52.847Z,888.2857
2023-04-27T06:30:01.043Z,901.7143
2023-04-27T06:31:09.109Z,909.2143
2023-04-27T06:32:17.081Z,907.1429
2023-04-27T06:33:25.109Z,911.3571
2023-04-27T06:34:33.174Z,911.6429
2023-04-27T06:35:41.250Z,907.7857
2023-04-27T06:36:49.338Z,916.8571
2023-04-27T06:37:57.471Z,917.5000
2023-04-27T06:39:05.409Z,916.2143
2023-04-27T06:40:13.485Z,919.0000
2023-04-27T06:41:21.659Z,912.8571
2023-04-27T06:42:29.588Z,916.0000
2023-04-27T06:43:37.569Z,906.4286
2023-04-27T06:44:45.705Z,912.2143
2023-04-27T06:45:53.906Z,908.3571
2023-04-27T06:47:01.848Z,909.2143
2023-04-27T06:48:10.012Z,903.3571
2023-04-27T06:49:17.939Z,899.9286
2023-04-27T06:50:26.027Z,896.7143
2023-04-27T06:51:34.120Z,897.9286
2023-04-27T06:52:42.320Z,888.4286
2023-04-27T06:53:50.258Z,898.2143
2023-04-27T06:54:58.278Z,897.1429
2023-04-27T06:56:06.309Z,900.7857
2023-04-27T06:57:14.310Z,899.5000
2023-04-27T06:58:22.359Z,903.6429
2023-04-27T06:59:30.412Z,905.7857
2023-04-27T07:00:38.518Z,904.4286
2023-04-27T07:01:46.561Z,909.2857
2023-04-27T07:02:54.673Z,920.6429
2023-04-27T07:04:02.780Z,921.5714
2023-04-27T07:05:10.721Z,923.6429
2023-04-27T07:06:18.833Z,925.8571
2023-04-27T07:07:26.909Z,922.5000
2023-04-27T07:08:35.034Z,915.4286
2023-04-27T07:09:43.113Z,913.9286
2023-04-27T07:10:51.136Z,908.0000
2023-04-27T07:11:59.226Z,902.4286
2023-04-27T07:13:09.119Z,902.4286
2023-04-27T07:14:20.077Z,905.1334
2023-04-27T07:15:28.154Z,901.1429
2023-04-27T07:16:36.274Z,901.5000
2023-04-27T07:17:44.261Z,899.1429
2023-04-27T07:18:52.336Z,898.2143
2023-04-27T07:20:00.376Z,900.8571
2023-04-27T07:21:08.549Z,900.7857
2023-04-27T07:22:16.518Z,899.8571
2023-04-27T07:23:24.569Z,902.1429
2023-04-27T07:24:32.690Z,904.3571
2023-04-27T07:25:40.563Z,899.7143
2023-04-27T07:26:48.654Z,902.9286
2023-04-27T07:27:56.704Z,905.0000
2023-04-27T07:29:14.439Z,910.3571
2023-04-27T07:30:17.910Z,908.0667
2023-04-27T07:31:26.301Z,896.4286
2023-04-27T07:32:33.983Z,894.8571
2023-04-27T07:33:42.006Z,897.0714
2023-04-27T07:34:54.082Z,896.9286
2023-04-27T07:36:02.922Z,893.2000
2023-04-27T07:37:11.027Z,893.6429
2023-04-27T07:38:18.976Z,891.0714
2023-04-27T07:39:27.057Z,898.5000
2023-04-27T07:40:35.059Z,903.6429
2023-04-27T07:41:43.223Z,899.8571
2023-04-27T07:42:51.289Z,897.9286
2023-04-27T07:43:59.395Z,895.0714
2023-04-27T07:45:07.514Z,899.9286
2023-04-27T07:46:15.459Z,903.2143
2023-04-27T07:47:23.574Z,903.4286
2023-04-27T07:48:31.544Z,912.0714
2023-04-27T07:49:39.642Z,907.2143
2023-04-27T07:50:47.646Z,910.0000
2023-04-27T07:51:55.782Z,904.2857
2023-04-27T07:53:03.791Z,903.2143
2023-04-27T07:54:11.774Z,910.7143
2023-04-27T07:55:19.859Z,910.5714
2023-04-27T07:56:28.055Z,916.9286
2023-04-27T07:57:36.139Z,919.4286
2023-04-27T07:58:44.076Z,916.8571
2023-04-27T07:59:52.184Z,916.1429
2023-04-27T08:01:00.194Z,910.4286
2023-04-27T08:02:19.113Z,902.0714
2023-04-27T08:03:21.231Z,899.8666
2023-04-27T08:04:29.406Z,893.8571
2023-04-27T08:05:37.490Z,886.0000
2023-04-27T08:06:45.880Z,893.0714
2023-04-27T08:07:53.990Z,892.2857
2023-04-27T08:09:01.550Z,895.0000
2023-04-27T08:10:09.589Z,895.5000
2023-04-27T08:11:17.629Z,894.1429
2023-04-27T08:12:25.639Z,897.8571
2023-04-27T08:13:33.893Z,904.7143
2023-04-27T08:14:41.753Z,914.0000
2023-04-27T08:15:49.825Z,924.0714
2023-04-27T08:16:58.027Z,931.7143
2023-04-27T08:18:05.991Z,944.3571
2023-04-27T08:19:14.207Z,954.6429
2023-04-27T08:20:21.937Z,969.6429
2023-04-27T08:21:29.989Z,988.0000
2023-04-27T08:22:38.063Z,1002.0000
2023-04-27T08:23:46.106Z,1004.7143
2023-04-27T08:24:54.211Z,1013.0000
2023-04-27T08:26:02.311Z,1020.5714
2023-04-27T08:27:10.264Z,1025.4286
2023-04-27T08:28:18.428Z,1030.7142
2023-04-27T08:29:28.813Z,1035.7142
2023-04-27T08:30:39.482Z,1044.4000
2023-04-27T08:31:47.529Z,1047.6428
2023-04-27T08:32:55.559Z,1047.7858
2023-04-27T08:34:03.449Z,1045.1428
2023-04-27T08:35:11.546Z,1041.1428
2023-04-27T08:36:19.584Z,1032.2142
2023-04-27T08:37:27.753Z,1010.3571
2023-04-27T08:38:35.842Z,1000.7143
2023-04-27T08:39:43.804Z,988.0000
2023-04-27T08:40:51.897Z,980.9286
2023-04-27T08:42:00.014Z,975.8571
2023-04-27T08:43:08.008Z,964.2857
2023-04-27T08:44:16.107Z,965.8571
2023-04-27T08:45:24.115Z,970.2143
2023-04-27T08:46:32.163Z,977.8571
2023-04-27T08:47:43.421Z,986.8571
2023-04-27T08:48:53.059Z,988.8000
2023-04-27T08:50:01.121Z,996.1429
2023-04-27T08:51:09.121Z,998.1429
2023-04-27T08:52:17.356Z,994.0000
2023-04-27T08:53:25.404Z,996.1429
2023-04-27T08:54:33.313Z,998.9286
2023-04-27T08:55:41.496Z,1001.0000
2023-04-27T08:56:49.519Z,1011.9286
2023-04-27T08:57:57.590Z,1022.5714
2023-04-27T08:59:05.661Z,1026.0000
2023-04-27T09:00:13.711Z,1031.4286
2023-04-27T09:01:21.944Z,1035.0000
2023-04-27T09:02:30.036Z,1030.2142
2023-04-27T09:03:37.995Z,1022.2857
2023-04-27T09:04:45.909Z,1021.4286
2023-04-27T09:06:04.369Z,1023.5714
2023-04-27T09:07:06.897Z,1022.1334
2023-04-27T09:08:14.975Z,1022.8571
2023-04-27T09:09:23.008Z,1026.2142
2023-04-27T09:10:31.283Z,1032.6428
2023-04-27T09:11:39.165Z,1038.5000
2023-04-27T09:12:47.222Z,1032.8572
2023-04-27T09:13:55.225Z,1038.3572
2023-04-27T09:15:03.308Z,1039.5714
2023-04-27T09:16:11.523Z,1036.3572
2023-04-27T09:17:19.339Z,1040.1428
2023-04-27T09:18:27.321Z,1035.6428
2023-04-27T09:19:35.406Z,1036.5714
2023-04-27T09:20:43.552Z,1040.2858
2023-04-27T09:21:51.714Z,1044.6428
2023-04-27T09:22:59.871Z,1042.0000
2023-04-27T09:24:07.744Z,1035.6428
2023-04-27T09:25:15.779Z,1032.8572
2023-04-27T09:26:23.795Z,1036.2858
2023-04-27T09:27:31.824Z,1031.5000
2023-04-27T09:28:39.944Z,1039.1428
2023-04-27T09:29:48.192Z,1038.1428
2023-04-27T09:30:56.055Z,1034.9286
2023-04-27T09:32:04.181Z,1031.0000
2023-04-27T09:33:12.081Z,1030.1428
2023-04-27T09:34:20.122Z,1025.1428
2023-04-27T09:35:28.358Z,1025.6428
2023-04-27T09:36:36.226Z,1026.9286
2023-04-27T09:37:44.426Z,1025.1428
2023-04-27T09:38:52.490Z,1017.7143
2023-04-27T09:40:00.449Z,1009.1429
2023-04-27T09:41:08.594Z,1009.9286
2023-04-27T09:42:16.515Z,1001.2857
2023-04-27T09:43:24.633Z,994.7143
2023-04-27T09:44:32.917Z,991.0000
2023-04-27T09:45:40.856Z,984.5714
2023-04-27T09:46:48.743Z,989.4286
2023-04-27T09:47:56.887Z,990.9286
2023-04-27T09:49:04.843Z,989.5714
2023-04-27T09:50:12.916Z,988.8571
2023-04-27T09:51:21.071Z,999.0000
2023-04-27T09:52:29.186Z,1000.9286
2023-04-27T09:53:37.077Z,1001.2143
2023-04-27T09:54:45.234Z,996.7857
2023-04-27T09:55:53.435Z,1009.3571
2023-04-27T09:57:01.347Z,1004.0000
2023-04-27T09:58:09.375Z,1002.8571
2023-04-27T09:59:17.449Z,1016.4286
2023-04-27T10:00:25.469Z,1029.7142
2023-04-27T10:01:35.274Z,1028.5714
2023-04-27T10:02:53.068Z,1028.4000
2023-04-27T10:03:59.443Z,1037.4667
2023-04-27T10:05:07.364Z,1047.7858
2023-04-27T10:06:15.471Z,1071.2142
2023-04-27T10:07:23.566Z,1057.5000
2023-04-27T10:08:31.891Z,1046.7142
2023-04-27T10:09:39.670Z,1042.5714
2023-04-27T10:10:47.698Z,1042.8572
2023-04-27T10:11:55.727Z,1039.7858
2023-04-27T10:13:03.883Z,1037.7858
2023-04-27T10:14:11.790Z,1039.8572
2023-04-27T10:15:19.836Z,1041.5714
2023-04-27T10:16:27.909Z,1044.9286
2023-04-27T10:17:36.116Z,1056.8572
2023-04-27T10:18:44.052Z,1061.5000
2023-04-27T10:19:54.305Z,1073.8572
2023-04-27T10:21:05.024Z,1083.1333
2023-04-27T10:22:13.166Z,1110.0714
2023-04-27T10:23:21.361Z,1131.0714
2023-04-27T10:24:29.227Z,1145.0000
2023-04-27T10:25:37.323Z,1138.1428
2023-04-27T10:26:45.299Z,1123.2142
2023-04-27T10:27:53.370Z,1111.5000
2023-04-27T10:29:01.324Z,1103.2858
2023-04-27T10:30:09.405Z,1115.5000
2023-04-27T10:31:17.603Z,1125.4286
2023-04-27T10:32:25.683Z,1124.0000
2023-04-27T10:33:33.639Z,1115.9286
2023-04-27T10:34:41.662Z,1100.2858
2023-04-27T10:35:49.856Z,1089.5714
2023-04-27T10:36:57.788Z,1076.8572
2023-04-27T10:38:05.845Z,1072.1428
2023-04-27T10:39:14.217Z,1071.5000
2023-04-27T10:40:21.988Z,1074.3572
2023-04-27T10:41:30.099Z,1082.0000
2023-04-27T10:42:37.974Z,1112.2858
2023-04-27T10:43:46.035Z,1135.8572
2023-04-27T10:44:54.106Z,1163.5714
2023-04-27T10:46:02.346Z,1194.5000
2023-04-27T10:47:10.297Z,1207.6428
2023-04-27T10:48:18.270Z,1210.8572
2023-04-27T10:49:26.441Z,1218.3572
2023-04-27T10:50:34.607Z,1216.0714
2023-04-27T10:51:42.592Z,1237.2858
2023-04-27T10:52:50.636Z,1242.7142
2023-04-27T10:53:58.632Z,1236.2858
2023-04-27T10:55:06.679Z,1238.6428
2023-04-27T10:56:14.741Z,1245.1428
2023-04-27T10:57:22.712Z,1257.5000
2023-04-27T10:58:41.421Z,1264.0000
2023-04-27T10:59:43.960Z,1266.4667
2023-04-27T11:00:51.749Z,1289.3572
2023-04-27T11:01:59.884Z,1289.6428
2023-04-27T11:03:08.037Z,1306.9286
2023-04-27T11:04:16.478Z,1297.5000
2023-04-27T11:05:24.058Z,1316.3572
2023-04-27T11:06:32.194Z,1362.5714
2023-04-27T11:07:40.182Z,1403.4286
2023-04-27T11:08:48.231Z,1437.0714
2023-04-27T11:09:56.284Z,1468.9286
2023-04-27T11:11:04.241Z,1496.0000
2023-04-27T11:12:12.289Z,1496.2858
2023-04-27T11:13:20.393Z,1490.0000
2023-04-27T11:14:28.498Z,1452.0000
2023-04-27T11:15:36.624Z,1432.2858
2023-04-27T11:16:44.687Z,1396.6428
2023-04-27T11:17:52.729Z,1364.8572
2023-04-27T11:19:00.718Z,1324.5714
2023-04-27T11:20:08.801Z,1296.7858
2023-04-27T11:21:16.904Z,1260.0714
2023-04-27T11:22:24.880Z,1226.3572
2023-04-27T11:23:33.060Z,1211.9286
2023-04-27T11:24:40.999Z,1191.3572
2023-04-27T11:25:48.978Z,1158.3572
2023-04-27T11:26:57.074Z,1114.0714
2023-04-27T11:28:05.116Z,1088.2858
2023-04-27T11:29:13.653Z,1067.7142
2023-04-27T11:30:21.311Z,1046.3572
2023-04-27T11:31:29.402Z,1051.7858
2023-04-27T11:32:37.566Z,1056.9286
2023-04-27T11:33:45.457Z,1059.9286
2023-04-27T11:34:54.657Z,1074.7858
2023-04-27T11:36:06.432Z,1084.0000
2023-04-27T11:37:18.429Z,1088.5000
2023-04-27T11:38:27.487Z,1083.8667
2023-04-27T11:39:35.382Z,1074.9286
2023-04-27T11:40:43.435Z,1111.3572
2023-04-27T11:41:51.630Z,1110.4286
2023-04-27T11:42:59.675Z,1112.5000
2023-04-27T11:44:07.758Z,1096.7142
2023-04-27T11:45:15.787Z,1068.0000
2023-04-27T11:46:23.839Z,1030.7858
2023-04-27T11:47:31.935Z,1020.5714
2023-04-27T11:48:39.921Z,1018.1429
2023-04-27T11:49:47.998Z,1004.5000
2023-04-27T11:50:56.110Z,1001.5714
2023-04-27T11:52:04.093Z,995.7857
2023-04-27T11:53:12.034Z,1016.0714
2023-04-27T11:54:20.082Z,1039.1428
2023-04-27T11:55:28.189Z,1014.7857
2023-04-27T11:56:36.470Z,986.1429
2023-04-27T11:57:44.401Z,997.7857
2023-04-27T11:58:52.314Z,1028.0714
2023-04-27T12:00:00.646Z,1049.3572
2023-04-27T12:01:08.587Z,1081.1428
2023-04-27T12:02:16.620Z,1168.8572
2023-04-27T12:03:24.984Z,1224.4286
2023-04-27T12:04:32.907Z,1266.7142
2023-04-27T12:05:40.954Z,1295.7142
2023-04-27T12:06:48.855Z,1344.5000
2023-04-27T12:07:56.877Z,1284.6428
2023-04-27T12:09:04.986Z,1218.2142
2023-04-27T12:10:12.879Z,1187.0000
2023-04-27T12:11:20.965Z,1199.2858
2023-04-27T12:12:29.034Z,1232.7142
2023-04-27T12:13:37.186Z,1296.5714
2023-04-27T12:14:45.352Z,1369.0000
2023-04-27T12:15:53.572Z,1413.5000
2023-04-27T12:17:01.473Z,1472.7858
2023-04-27T12:18:09.602Z,1499.3572
2023-04-27T12:19:17.640Z,1515.5000
2023-04-27T12:20:25.718Z,1546.0714
2023-04-27T12:21:33.611Z,1635.5714
2023-04-27T12:22:41.717Z,1715.7142
2023-04-27T12:23:49.863Z,1803.2858
2023-04-27T12:24:57.734Z,1927.6428
2023-04-27T12:26:05.806Z,2009.0000
2023-04-27T12:27:13.858Z,2083.3572
2023-04-27T12:28:22.003Z,2100.3572
2023-04-27T12:29:29.998Z,2206.6428
2023-04-27T12:30:38.156Z,2171.5000
2023-04-27T12:31:46.256Z,2227.7856
2023-04-27T12:32:54.416Z,2325.7144
2023-04-27T12:34:02.304Z,2325.7144
2023-04-27T12:35:10.494Z,2354.5000
2023-04-27T12:36:18.567Z,2364.4285
2023-04-27T12:37:27.146Z,2427.4285
2023-04-27T12:38:34.440Z,2499.1428
2023-04-27T12:39:42.516Z,2606.4285
2023-04-27T12:40:50.608Z,2566.0000
2023-04-27T12:41:58.806Z,2458.6428
2023-04-27T12:43:06.734Z,2448.5715
2023-04-27T12:44:15.068Z,2478.5000
2023-04-27T12:45:22.905Z,2468.4285
2023-04-27T12:46:30.995Z,2395.2144
2023-04-27T12:47:58.345Z,2430.0715
2023-04-27T12:48:51.985Z,2467.2666
2023-04-27T12:50:00.013Z,2433.6428
2023-04-27T12:51:08.242Z,2441.7144
2023-04-27T12:52:16.132Z,2568.5715
2023-04-27T12:53:24.150Z,2645.1428
2023-04-27T12:54:32.240Z,2742.6428
2023-04-27T12:55:40.433Z,2762.7856
2023-04-27T12:56:48.385Z,2829.1428
2023-04-27T12:57:56.545Z,2854.2144
2023-04-27T12:59:04.604Z,2846.5000
2023-04-27T13:00:12.690Z,2716.8572
2023-04-27T13:01:20.634Z,2486.4285
2023-04-27T13:02:28.938Z,2216.7144
2023-04-27T13:03:37.095Z,1935.1428
2023-04-27T13:04:45.055Z,1706.0000
2023-04-27T13:05:53.028Z,1759.7858
2023-04-27T13:07:00.938Z,1927.0714
2023-04-27T13:08:08.997Z,1894.5714
2023-04-27T13:09:17.099Z,1866.2858
2023-04-27T13:10:25.226Z,1733.1428
2023-04-27T13:11:33.282Z,1604.7858
2023-04-27T13:12:41.608Z,1565.5000